Aviation Digital Data Service (ADDS)

Output produced by TAFs form (1043 UTC 20 August 2014)
found at http://www.aviationweather.gov/adds/tafs/
 
KRIC 200539Z 2006/2106 05003KT P6SM SCT020 SCT100 
     FM200700 05003KT 5SM BR BKN015 
     FM201000 06003KT 3SM BR OVC006 
     FM201330 13005KT P6SM BKN040